sensor_id;sensor_type;location;lat;lon;timestamp;P1;durP1;ratioP1;P2;durP2;ratioP2
43891;SDS011;29555;45.350;5.578;2023-02-03T00:00:48;7.35;;;4.57;;
43891;SDS011;29555;45.350;5.578;2023-02-03T00:03:13;13.25;;;4.30;;
43891;SDS011;29555;45.350;5.578;2023-02-03T00:05:39;12.30;;;5.13;;
43891;SDS011;29555;45.350;5.578;2023-02-03T00:08:05;7.68;;;4.28;;
43891;SDS011;29555;45.350;5.578;2023-02-03T00:10:33;7.28;;;4.30;;
43891;SDS011;29555;45.350;5.578;2023-02-03T00:12:59;9.93;;;4.10;;
43891;SDS011;29555;45.350;5.578;2023-02-03T00:15:24;10.05;;;4.57;;
43891;SDS011;29555;45.350;5.578;2023-02-03T00:17:51;7.15;;;3.67;;
43891;SDS011;29555;45.350;5.578;2023-02-03T00:20:16;6.05;;;3.67;;
43891;SDS011;29555;45.350;5.578;2023-02-03T00:22:42;11.30;;;3.85;;
43891;SDS011;29555;45.350;5.578;2023-02-03T00:25:07;6.72;;;3.65;;
43891;SDS011;29555;45.350;5.578;2023-02-03T00:27:33;9.50;;;3.35;;
43891;SDS011;29555;45.350;5.578;2023-02-03T00:29:58;15.05;;;3.95;;
43891;SDS011;29555;45.350;5.578;2023-02-03T00:32:23;8.75;;;3.70;;
43891;SDS011;29555;45.350;5.578;2023-02-03T00:34:49;13.57;;;3.88;;
43891;SDS011;29555;45.350;5.578;2023-02-03T00:37:14;10.02;;;2.78;;
43891;SDS011;29555;45.350;5.578;2023-02-03T00:39:39;6.90;;;3.50;;
43891;SDS011;29555;45.350;5.578;2023-02-03T00:42:05;6.38;;;2.92;;
43891;SDS011;29555;45.350;5.578;2023-02-03T00:44:30;6.13;;;2.20;;
43891;SDS011;29555;45.350;5.578;2023-02-03T00:46:56;12.63;;;3.97;;
43891;SDS011;29555;45.350;5.578;2023-02-03T00:49:22;5.97;;;3.08;;
43891;SDS011;29555;45.350;5.578;2023-02-03T00:51:47;15.43;;;3.47;;
43891;SDS011;29555;45.350;5.578;2023-02-03T00:54:13;12.15;;;3.47;;
43891;SDS011;29555;45.350;5.578;2023-02-03T00:56:38;7.53;;;2.40;;
43891;SDS011;29555;45.350;5.578;2023-02-03T00:59:04;12.73;;;3.40;;
43891;SDS011;29555;45.350;5.578;2023-02-03T01:01:30;13.38;;;3.17;;
43891;SDS011;29555;45.350;5.578;2023-02-03T01:03:55;6.20;;;2.13;;
43891;SDS011;29555;45.350;5.578;2023-02-03T01:06:21;6.85;;;2.08;;
43891;SDS011;29555;45.350;5.578;2023-02-03T01:08:47;5.95;;;2.47;;
43891;SDS011;29555;45.350;5.578;2023-02-03T01:11:16;17.02;;;3.72;;
43891;SDS011;29555;45.350;5.578;2023-02-03T01:13:43;5.93;;;2.47;;
43891;SDS011;29555;45.350;5.578;2023-02-03T01:16:10;15.90;;;5.25;;
43891;SDS011;29555;45.350;5.578;2023-02-03T01:18:37;4.13;;;3.72;;
43891;SDS011;29555;45.350;5.578;2023-02-03T01:21:07;9.75;;;2.53;;
43891;SDS011;29555;45.350;5.578;2023-02-03T01:23:34;7.47;;;3.30;;
43891;SDS011;29555;45.350;5.578;2023-02-03T01:26:04;5.88;;;3.50;;
43891;SDS011;29555;45.350;5.578;2023-02-03T01:28:30;6.20;;;2.50;;
43891;SDS011;29555;45.350;5.578;2023-02-03T01:31:12;8.50;;;2.80;;
43891;SDS011;29555;45.350;5.578;2023-02-03T01:36:06;11.30;;;1.92;;
43891;SDS011;29555;45.350;5.578;2023-02-03T01:38:32;8.93;;;3.83;;
43891;SDS011;29555;45.350;5.578;2023-02-03T01:40:58;7.00;;;3.20;;
43891;SDS011;29555;45.350;5.578;2023-02-03T01:43:30;8.07;;;2.28;;
43891;SDS011;29555;45.350;5.578;2023-02-03T01:45:57;5.72;;;2.15;;
43891;SDS011;29555;45.350;5.578;2023-02-03T01:48:24;8.68;;;2.38;;
43891;SDS011;29555;45.350;5.578;2023-02-03T01:50:50;5.20;;;2.50;;
43891;SDS011;29555;45.350;5.578;2023-02-03T01:53:16;7.53;;;2.97;;
43891;SDS011;29555;45.350;5.578;2023-02-03T01:55:42;16.15;;;4.50;;
43891;SDS011;29555;45.350;5.578;2023-02-03T01:58:11;9.40;;;4.80;;
43891;SDS011;29555;45.350;5.578;2023-02-03T02:00:38;15.88;;;6.75;;
43891;SDS011;29555;45.350;5.578;2023-02-03T02:03:03;9.30;;;4.03;;
43891;SDS011;29555;45.350;5.578;2023-02-03T02:05:31;15.73;;;4.82;;
43891;SDS011;29555;45.350;5.578;2023-02-03T02:08:00;4.10;;;3.00;;
43891;SDS011;29555;45.350;5.578;2023-02-03T02:10:28;6.32;;;3.42;;
43891;SDS011;29555;45.350;5.578;2023-02-03T02:12:55;7.93;;;3.25;;
43891;SDS011;29555;45.350;5.578;2023-02-03T02:15:22;7.40;;;3.08;;
43891;SDS011;29555;45.350;5.578;2023-02-03T02:23:33;4.55;;;2.85;;
43891;SDS011;29555;45.350;5.578;2023-02-03T02:26:20;5.65;;;3.03;;
43891;SDS011;29555;45.350;5.578;2023-02-03T02:34:17;9.88;;;4.13;;
43891;SDS011;29555;45.350;5.578;2023-02-03T02:37:03;10.90;;;5.97;;
43891;SDS011;29555;45.350;5.578;2023-02-03T02:39:55;11.55;;;6.28;;
43891;SDS011;29555;45.350;5.578;2023-02-03T02:45:09;20.73;;;7.05;;
43891;SDS011;29555;45.350;5.578;2023-02-03T02:47:46;11.02;;;5.55;;
43891;SDS011;29555;45.350;5.578;2023-02-03T02:52:40;8.63;;;5.05;;
43891;SDS011;29555;45.350;5.578;2023-02-03T02:55:16;12.82;;;5.43;;
43891;SDS011;29555;45.350;5.578;2023-02-03T02:57:52;8.68;;;4.47;;
43891;SDS011;29555;45.350;5.578;2023-02-03T03:00:21;13.73;;;4.47;;
43891;SDS011;29555;45.350;5.578;2023-02-03T03:02:47;15.10;;;6.40;;
43891;SDS011;29555;45.350;5.578;2023-02-03T03:05:12;8.73;;;5.28;;
43891;SDS011;29555;45.350;5.578;2023-02-03T03:07:42;10.73;;;5.63;;
43891;SDS011;29555;45.350;5.578;2023-02-03T03:10:12;8.82;;;5.00;;
43891;SDS011;29555;45.350;5.578;2023-02-03T03:12:44;9.50;;;4.65;;
43891;SDS011;29555;45.350;5.578;2023-02-03T03:15:18;20.10;;;5.30;;
43891;SDS011;29555;45.350;5.578;2023-02-03T03:17:48;10.70;;;4.43;;
43891;SDS011;29555;45.350;5.578;2023-02-03T03:20:22;5.70;;;4.18;;
43891;SDS011;29555;45.350;5.578;2023-02-03T03:22:51;8.70;;;4.32;;
43891;SDS011;29555;45.350;5.578;2023-02-03T03:25:24;6.88;;;3.58;;
43891;SDS011;29555;45.350;5.578;2023-02-03T03:27:55;7.40;;;4.68;;
43891;SDS011;29555;45.350;5.578;2023-02-03T03:30:28;11.50;;;4.95;;
43891;SDS011;29555;45.350;5.578;2023-02-03T03:32:59;7.55;;;4.70;;
43891;SDS011;29555;45.350;5.578;2023-02-03T03:35:27;6.15;;;4.88;;
43891;SDS011;29555;45.350;5.578;2023-02-03T03:38:03;6.55;;;3.85;;
43891;SDS011;29555;45.350;5.578;2023-02-03T03:40:37;12.20;;;4.55;;
43891;SDS011;29555;45.350;5.578;2023-02-03T03:43:09;8.95;;;4.55;;
43891;SDS011;29555;45.350;5.578;2023-02-03T03:45:57;13.48;;;4.47;;
43891;SDS011;29555;45.350;5.578;2023-02-03T03:48:38;9.13;;;3.65;;
43891;SDS011;29555;45.350;5.578;2023-02-03T03:51:14;14.35;;;5.53;;
43891;SDS011;29555;45.350;5.578;2023-02-03T03:53:43;7.57;;;4.67;;
43891;SDS011;29555;45.350;5.578;2023-02-03T03:56:14;13.23;;;4.88;;
43891;SDS011;29555;45.350;5.578;2023-02-03T03:58:45;8.60;;;3.70;;
43891;SDS011;29555;45.350;5.578;2023-02-03T04:01:12;12.80;;;5.47;;
43891;SDS011;29555;45.350;5.578;2023-02-03T04:03:40;22.50;;;6.80;;
43891;SDS011;29555;45.350;5.578;2023-02-03T04:06:09;13.30;;;7.22;;
43891;SDS011;29555;45.350;5.578;2023-02-03T04:08:36;17.80;;;7.13;;
43891;SDS011;29555;45.350;5.578;2023-02-03T04:11:03;15.85;;;7.65;;
43891;SDS011;29555;45.350;5.578;2023-02-03T04:13:28;20.00;;;8.75;;
43891;SDS011;29555;45.350;5.578;2023-02-03T04:15:54;11.98;;;6.32;;
43891;SDS011;29555;45.350;5.578;2023-02-03T04:18:19;12.63;;;6.13;;
43891;SDS011;29555;45.350;5.578;2023-02-03T04:20:44;9.25;;;6.05;;
43891;SDS011;29555;45.350;5.578;2023-02-03T04:23:10;15.48;;;6.03;;
43891;SDS011;29555;45.350;5.578;2023-02-03T04:25:35;8.98;;;4.15;;
43891;SDS011;29555;45.350;5.578;2023-02-03T04:28:01;14.98;;;4.65;;
43891;SDS011;29555;45.350;5.578;2023-02-03T04:30:26;14.55;;;5.95;;
43891;SDS011;29555;45.350;5.578;2023-02-03T04:32:52;10.30;;;5.22;;
43891;SDS011;29555;45.350;5.578;2023-02-03T04:35:18;13.75;;;6.03;;
43891;SDS011;29555;45.350;5.578;2023-02-03T04:37:43;11.85;;;6.03;;
43891;SDS011;29555;45.350;5.578;2023-02-03T04:40:09;15.57;;;6.90;;
43891;SDS011;29555;45.350;5.578;2023-02-03T04:42:36;20.25;;;6.18;;
43891;SDS011;29555;45.350;5.578;2023-02-03T04:45:02;12.88;;;6.32;;
43891;SDS011;29555;45.350;5.578;2023-02-03T04:47:28;13.85;;;5.55;;
43891;SDS011;29555;45.350;5.578;2023-02-03T04:49:54;11.63;;;5.55;;
43891;SDS011;29555;45.350;5.578;2023-02-03T04:52:19;7.15;;;4.05;;
43891;SDS011;29555;45.350;5.578;2023-02-03T04:54:44;15.20;;;4.32;;
43891;SDS011;29555;45.350;5.578;2023-02-03T04:57:10;4.30;;;3.65;;
43891;SDS011;29555;45.350;5.578;2023-02-03T04:59:35;3.70;;;2.88;;
43891;SDS011;29555;45.350;5.578;2023-02-03T05:02:01;12.48;;;4.32;;
43891;SDS011;29555;45.350;5.578;2023-02-03T05:04:28;9.05;;;4.25;;
43891;SDS011;29555;45.350;5.578;2023-02-03T05:06:53;9.00;;;4.85;;
43891;SDS011;29555;45.350;5.578;2023-02-03T05:09:20;7.60;;;4.65;;
43891;SDS011;29555;45.350;5.578;2023-02-03T05:11:45;17.48;;;6.00;;
43891;SDS011;29555;45.350;5.578;2023-02-03T05:14:11;9.90;;;4.85;;
43891;SDS011;29555;45.350;5.578;2023-02-03T05:16:36;14.75;;;7.00;;
43891;SDS011;29555;45.350;5.578;2023-02-03T05:19:01;12.80;;;6.32;;
43891;SDS011;29555;45.350;5.578;2023-02-03T05:21:27;15.43;;;6.55;;
43891;SDS011;29555;45.350;5.578;2023-02-03T05:23:52;11.65;;;5.72;;
43891;SDS011;29555;45.350;5.578;2023-02-03T05:26:18;12.20;;;6.07;;
43891;SDS011;29555;45.350;5.578;2023-02-03T05:28:43;7.93;;;4.88;;
43891;SDS011;29555;45.350;5.578;2023-02-03T05:31:08;9.68;;;5.28;;
43891;SDS011;29555;45.350;5.578;2023-02-03T05:33:34;8.88;;;5.43;;
43891;SDS011;29555;45.350;5.578;2023-02-03T05:35:59;16.08;;;4.63;;
43891;SDS011;29555;45.350;5.578;2023-02-03T05:38:25;4.07;;;2.78;;
43891;SDS011;29555;45.350;5.578;2023-02-03T05:40:50;8.75;;;5.32;;
43891;SDS011;29555;45.350;5.578;2023-02-03T05:43:35;12.38;;;5.75;;
43891;SDS011;29555;45.350;5.578;2023-02-03T05:46:04;12.77;;;6.43;;
43891;SDS011;29555;45.350;5.578;2023-02-03T05:48:30;17.17;;;5.90;;
43891;SDS011;29555;45.350;5.578;2023-02-03T05:50:56;26.25;;;5.53;;
43891;SDS011;29555;45.350;5.578;2023-02-03T05:53:22;8.07;;;4.03;;
43891;SDS011;29555;45.350;5.578;2023-02-03T05:55:47;6.97;;;4.18;;
43891;SDS011;29555;45.350;5.578;2023-02-03T05:58:13;10.25;;;5.75;;
43891;SDS011;29555;45.350;5.578;2023-02-03T06:00:38;12.75;;;5.32;;
43891;SDS011;29555;45.350;5.578;2023-02-03T06:03:04;11.15;;;5.50;;
43891;SDS011;29555;45.350;5.578;2023-02-03T06:05:30;8.98;;;4.88;;
43891;SDS011;29555;45.350;5.578;2023-02-03T06:07:57;9.85;;;5.00;;
43891;SDS011;29555;45.350;5.578;2023-02-03T06:10:22;10.23;;;5.78;;
43891;SDS011;29555;45.350;5.578;2023-02-03T06:12:48;12.43;;;5.22;;
43891;SDS011;29555;45.350;5.578;2023-02-03T06:15:14;11.40;;;5.10;;
43891;SDS011;29555;45.350;5.578;2023-02-03T06:17:43;15.88;;;5.97;;
43891;SDS011;29555;45.350;5.578;2023-02-03T06:20:09;8.57;;;5.22;;
43891;SDS011;29555;45.350;5.578;2023-02-03T06:22:38;16.08;;;6.88;;
43891;SDS011;29555;45.350;5.578;2023-02-03T06:25:03;10.00;;;6.13;;
43891;SDS011;29555;45.350;5.578;2023-02-03T06:27:29;10.38;;;5.68;;
43891;SDS011;29555;45.350;5.578;2023-02-03T06:29:54;13.77;;;5.22;;
43891;SDS011;29555;45.350;5.578;2023-02-03T06:32:20;9.55;;;4.68;;
43891;SDS011;29555;45.350;5.578;2023-02-03T06:34:45;10.70;;;5.47;;
43891;SDS011;29555;45.350;5.578;2023-02-03T06:37:11;12.32;;;6.60;;
43891;SDS011;29555;45.350;5.578;2023-02-03T06:39:36;17.00;;;6.90;;
43891;SDS011;29555;45.350;5.578;2023-02-03T06:42:02;10.48;;;5.95;;
43891;SDS011;29555;45.350;5.578;2023-02-03T06:44:27;15.68;;;7.75;;
43891;SDS011;29555;45.350;5.578;2023-02-03T06:46:52;17.42;;;6.65;;
43891;SDS011;29555;45.350;5.578;2023-02-03T06:49:18;16.58;;;8.45;;
43891;SDS011;29555;45.350;5.578;2023-02-03T06:51:43;22.67;;;8.63;;
43891;SDS011;29555;45.350;5.578;2023-02-03T06:54:10;14.77;;;8.80;;
43891;SDS011;29555;45.350;5.578;2023-02-03T06:56:36;17.98;;;9.15;;
43891;SDS011;29555;45.350;5.578;2023-02-03T06:59:02;26.83;;;11.60;;
43891;SDS011;29555;45.350;5.578;2023-02-03T07:01:27;15.20;;;8.80;;
43891;SDS011;29555;45.350;5.578;2023-02-03T07:03:54;18.38;;;7.38;;
43891;SDS011;29555;45.350;5.578;2023-02-03T07:06:22;14.57;;;5.60;;
43891;SDS011;29555;45.350;5.578;2023-02-03T07:08:52;22.95;;;10.02;;
43891;SDS011;29555;45.350;5.578;2023-02-03T07:11:19;51.75;;;19.92;;
43891;SDS011;29555;45.350;5.578;2023-02-03T07:13:45;83.18;;;28.30;;
43891;SDS011;29555;45.350;5.578;2023-02-03T07:16:10;33.58;;;11.13;;
43891;SDS011;29555;45.350;5.578;2023-02-03T07:18:35;74.55;;;26.35;;
43891;SDS011;29555;45.350;5.578;2023-02-03T07:21:02;52.30;;;17.42;;
43891;SDS011;29555;45.350;5.578;2023-02-03T07:23:28;24.80;;;8.25;;
43891;SDS011;29555;45.350;5.578;2023-02-03T07:25:57;26.45;;;11.55;;
43891;SDS011;29555;45.350;5.578;2023-02-03T07:28:23;36.75;;;14.63;;
43891;SDS011;29555;45.350;5.578;2023-02-03T07:30:48;36.90;;;15.85;;
43891;SDS011;29555;45.350;5.578;2023-02-03T07:33:14;25.98;;;13.23;;
43891;SDS011;29555;45.350;5.578;2023-02-03T07:35:39;22.40;;;9.95;;
43891;SDS011;29555;45.350;5.578;2023-02-03T07:38:05;19.70;;;9.38;;
43891;SDS011;29555;45.350;5.578;2023-02-03T07:40:30;15.23;;;8.10;;
43891;SDS011;29555;45.350;5.578;2023-02-03T07:42:55;21.50;;;10.40;;
43891;SDS011;29555;45.350;5.578;2023-02-03T07:45:21;19.67;;;8.45;;
43891;SDS011;29555;45.350;5.578;2023-02-03T07:47:48;14.15;;;8.30;;
43891;SDS011;29555;45.350;5.578;2023-02-03T07:50:14;10.70;;;7.13;;
43891;SDS011;29555;45.350;5.578;2023-02-03T07:52:40;23.27;;;8.73;;
43891;SDS011;29555;45.350;5.578;2023-02-03T07:55:05;11.95;;;7.70;;
43891;SDS011;29555;45.350;5.578;2023-02-03T07:57:31;17.00;;;7.53;;
43891;SDS011;29555;45.350;5.578;2023-02-03T07:59:56;22.52;;;9.55;;
43891;SDS011;29555;45.350;5.578;2023-02-03T08:02:22;18.60;;;10.85;;
43891;SDS011;29555;45.350;5.578;2023-02-03T08:04:47;21.63;;;9.80;;
43891;SDS011;29555;45.350;5.578;2023-02-03T08:07:12;15.20;;;8.43;;
43891;SDS011;29555;45.350;5.578;2023-02-03T08:09:38;24.13;;;11.13;;
43891;SDS011;29555;45.350;5.578;2023-02-03T08:12:03;28.10;;;15.85;;
43891;SDS011;29555;45.350;5.578;2023-02-03T08:14:29;30.67;;;14.77;;
43891;SDS011;29555;45.350;5.578;2023-02-03T08:16:55;25.02;;;14.05;;
43891;SDS011;29555;45.350;5.578;2023-02-03T08:19:21;13.98;;;8.00;;
43891;SDS011;29555;45.350;5.578;2023-02-03T08:21:46;14.00;;;7.60;;
43891;SDS011;29555;45.350;5.578;2023-02-03T08:24:12;23.17;;;9.65;;
43891;SDS011;29555;45.350;5.578;2023-02-03T08:26:37;16.58;;;8.80;;
43891;SDS011;29555;45.350;5.578;2023-02-03T08:29:02;14.10;;;7.97;;
43891;SDS011;29555;45.350;5.578;2023-02-03T08:31:29;14.40;;;8.88;;
43891;SDS011;29555;45.350;5.578;2023-02-03T08:33:55;45.00;;;20.95;;
43891;SDS011;29555;45.350;5.578;2023-02-03T08:36:20;60.88;;;31.75;;
43891;SDS011;29555;45.350;5.578;2023-02-03T08:38:45;47.60;;;24.67;;
43891;SDS011;29555;45.350;5.578;2023-02-03T08:41:13;42.80;;;23.10;;
43891;SDS011;29555;45.350;5.578;2023-02-03T08:43:40;24.25;;;13.55;;
43891;SDS011;29555;45.350;5.578;2023-02-03T08:46:06;20.90;;;10.68;;
43891;SDS011;29555;45.350;5.578;2023-02-03T08:48:33;20.50;;;9.73;;
43891;SDS011;29555;45.350;5.578;2023-02-03T08:50:59;37.60;;;15.18;;
43891;SDS011;29555;45.350;5.578;2023-02-03T08:53:24;95.18;;;35.15;;
43891;SDS011;29555;45.350;5.578;2023-02-03T08:55:51;69.50;;;27.88;;
43891;SDS011;29555;45.350;5.578;2023-02-03T08:58:17;72.07;;;32.60;;
43891;SDS011;29555;45.350;5.578;2023-02-03T09:00:42;99.50;;;43.45;;
43891;SDS011;29555;45.350;5.578;2023-02-03T09:03:08;44.72;;;24.92;;
43891;SDS011;29555;45.350;5.578;2023-02-03T09:05:34;18.38;;;10.05;;
43891;SDS011;29555;45.350;5.578;2023-02-03T09:08:00;12.05;;;8.27;;
43891;SDS011;29555;45.350;5.578;2023-02-03T09:10:25;17.50;;;7.28;;
43891;SDS011;29555;45.350;5.578;2023-02-03T09:12:51;12.30;;;7.03;;
43891;SDS011;29555;45.350;5.578;2023-02-03T09:15:16;11.65;;;7.95;;
43891;SDS011;29555;45.350;5.578;2023-02-03T09:17:42;18.70;;;7.22;;
43891;SDS011;29555;45.350;5.578;2023-02-03T09:20:07;25.50;;;13.10;;
43891;SDS011;29555;45.350;5.578;2023-02-03T09:22:33;18.45;;;9.05;;
43891;SDS011;29555;45.350;5.578;2023-02-03T09:24:58;15.35;;;7.53;;
43891;SDS011;29555;45.350;5.578;2023-02-03T09:27:24;51.22;;;24.40;;
43891;SDS011;29555;45.350;5.578;2023-02-03T09:29:49;30.58;;;14.52;;
43891;SDS011;29555;45.350;5.578;2023-02-03T09:32:14;8.88;;;7.35;;
43891;SDS011;29555;45.350;5.578;2023-02-03T09:34:40;11.80;;;6.30;;
43891;SDS011;29555;45.350;5.578;2023-02-03T09:37:06;18.60;;;7.25;;
43891;SDS011;29555;45.350;5.578;2023-02-03T09:39:31;13.02;;;7.80;;
43891;SDS011;29555;45.350;5.578;2023-02-03T09:47:13;6.55;;;4.93;;
43891;SDS011;29555;45.350;5.578;2023-02-03T09:49:44;10.18;;;5.50;;
43891;SDS011;29555;45.350;5.578;2023-02-03T09:52:21;12.77;;;5.95;;
43891;SDS011;29555;45.350;5.578;2023-02-03T09:55:06;10.30;;;6.35;;
43891;SDS011;29555;45.350;5.578;2023-02-03T09:58:12;18.85;;;6.22;;
43891;SDS011;29555;45.350;5.578;2023-02-03T10:03:22;17.45;;;6.95;;
43891;SDS011;29555;45.350;5.578;2023-02-03T10:06:07;11.00;;;7.25;;
43891;SDS011;29555;45.350;5.578;2023-02-03T10:08:45;6.07;;;5.47;;
43891;SDS011;29555;45.350;5.578;2023-02-03T10:19:36;15.93;;;5.95;;
43891;SDS011;29555;45.350;5.578;2023-02-03T10:22:07;14.25;;;7.40;;
43891;SDS011;29555;45.350;5.578;2023-02-03T10:24:39;11.27;;;6.05;;
43891;SDS011;29555;45.350;5.578;2023-02-03T10:27:17;10.77;;;8.35;;
43891;SDS011;29555;45.350;5.578;2023-02-03T10:29:44;8.93;;;6.13;;
43891;SDS011;29555;45.350;5.578;2023-02-03T10:32:17;14.95;;;7.68;;
43891;SDS011;29555;45.350;5.578;2023-02-03T10:34:43;15.40;;;6.28;;
43891;SDS011;29555;45.350;5.578;2023-02-03T10:39:53;10.80;;;6.18;;
43891;SDS011;29555;45.350;5.578;2023-02-03T10:42:20;7.43;;;5.30;;
43891;SDS011;29555;45.350;5.578;2023-02-03T10:44:56;7.40;;;5.53;;
43891;SDS011;29555;45.350;5.578;2023-02-03T10:47:28;10.98;;;6.95;;
43891;SDS011;29555;45.350;5.578;2023-02-03T10:50:02;13.82;;;6.40;;
43891;SDS011;29555;45.350;5.578;2023-02-03T10:52:32;18.92;;;5.75;;
43891;SDS011;29555;45.350;5.578;2023-02-03T10:55:05;13.60;;;6.57;;
43891;SDS011;29555;45.350;5.578;2023-02-03T10:57:34;9.13;;;5.93;;
43891;SDS011;29555;45.350;5.578;2023-02-03T11:00:18;12.57;;;6.82;;
43891;SDS011;29555;45.350;5.578;2023-02-03T11:02:53;7.68;;;5.95;;
43891;SDS011;29555;45.350;5.578;2023-02-03T11:05:20;8.27;;;5.68;;
43891;SDS011;29555;45.350;5.578;2023-02-03T11:07:49;11.93;;;5.45;;
43891;SDS011;29555;45.350;5.578;2023-02-03T11:10:33;6.03;;;5.13;;
43891;SDS011;29555;45.350;5.578;2023-02-03T11:13:15;14.23;;;10.02;;
43891;SDS011;29555;45.350;5.578;2023-02-03T11:15:44;13.55;;;7.70;;
43891;SDS011;29555;45.350;5.578;2023-02-03T11:20:59;16.13;;;8.65;;
43891;SDS011;29555;45.350;5.578;2023-02-03T11:23:31;21.37;;;9.30;;
43891;SDS011;29555;45.350;5.578;2023-02-03T11:25:57;24.50;;;12.30;;
43891;SDS011;29555;45.350;5.578;2023-02-03T11:28:23;18.85;;;9.40;;
43891;SDS011;29555;45.350;5.578;2023-02-03T11:30:55;33.30;;;12.55;;
43891;SDS011;29555;45.350;5.578;2023-02-03T11:33:22;19.60;;;8.23;;
43891;SDS011;29555;45.350;5.578;2023-02-03T11:35:57;16.50;;;6.68;;
43891;SDS011;29555;45.350;5.578;2023-02-03T11:38:33;11.77;;;5.93;;
43891;SDS011;29555;45.350;5.578;2023-02-03T11:41:01;8.93;;;6.18;;
43891;SDS011;29555;45.350;5.578;2023-02-03T11:43:27;13.52;;;6.80;;
43891;SDS011;29555;45.350;5.578;2023-02-03T11:45:54;8.80;;;6.43;;
43891;SDS011;29555;45.350;5.578;2023-02-03T11:48:35;9.13;;;5.47;;
43891;SDS011;29555;45.350;5.578;2023-02-03T12:05:28;8.02;;;6.28;;
43891;SDS011;29555;45.350;5.578;2023-02-03T12:08:12;8.50;;;6.05;;
43891;SDS011;29555;45.350;5.578;2023-02-03T12:13:33;8.13;;;5.20;;
43891;SDS011;29555;45.350;5.578;2023-02-03T12:21:42;3.10;;;2.00;;
43891;SDS011;29555;45.350;5.578;2023-02-03T12:29:56;2.25;;;1.60;;
43891;SDS011;29555;45.350;5.578;2023-02-03T12:40:34;2.42;;;1.63;;
43891;SDS011;29555;45.350;5.578;2023-02-03T12:45:40;2.85;;;2.10;;
43891;SDS011;29555;45.350;5.578;2023-02-03T12:48:15;4.97;;;1.33;;
43891;SDS011;29555;45.350;5.578;2023-02-03T12:51:02;7.95;;;1.30;;
43891;SDS011;29555;45.350;5.578;2023-02-03T12:53:32;4.47;;;1.55;;
43891;SDS011;29555;45.350;5.578;2023-02-03T12:56:13;8.13;;;2.38;;
43891;SDS011;29555;45.350;5.578;2023-02-03T12:58:58;4.03;;;1.63;;
43891;SDS011;29555;45.350;5.578;2023-02-03T13:01:33;3.10;;;1.55;;
43891;SDS011;29555;45.350;5.578;2023-02-03T13:04:10;1.52;;;1.30;;
43891;SDS011;29555;45.350;5.578;2023-02-03T13:07:11;3.67;;;2.05;;
43891;SDS011;29555;45.350;5.578;2023-02-03T13:20:26;7.80;;;3.53;;
43891;SDS011;29555;45.350;5.578;2023-02-03T13:22:55;2.47;;;1.42;;
43891;SDS011;29555;45.350;5.578;2023-02-03T13:25:22;7.38;;;2.90;;
43891;SDS011;29555;45.350;5.578;2023-02-03T13:44:10;11.82;;;4.00;;
43891;SDS011;29555;45.350;5.578;2023-02-03T13:46:39;4.97;;;1.75;;
43891;SDS011;29555;45.350;5.578;2023-02-03T13:49:05;1.73;;;1.63;;
43891;SDS011;29555;45.350;5.578;2023-02-03T13:51:34;4.50;;;1.88;;
43891;SDS011;29555;45.350;5.578;2023-02-03T13:54:04;2.30;;;2.10;;
43891;SDS011;29555;45.350;5.578;2023-02-03T13:56:32;3.20;;;1.85;;
43891;SDS011;29555;45.350;5.578;2023-02-03T14:01:30;3.55;;;1.65;;
43891;SDS011;29555;45.350;5.578;2023-02-03T14:04:06;2.97;;;1.58;;
43891;SDS011;29555;45.350;5.578;2023-02-03T14:09:18;3.97;;;3.25;;
43891;SDS011;29555;45.350;5.578;2023-02-03T14:11:48;4.20;;;1.90;;
43891;SDS011;29555;45.350;5.578;2023-02-03T14:16:50;7.68;;;3.22;;
43891;SDS011;29555;45.350;5.578;2023-02-03T14:24:29;26.88;;;12.23;;
43891;SDS011;29555;45.350;5.578;2023-02-03T14:26:56;15.82;;;9.23;;
43891;SDS011;29555;45.350;5.578;2023-02-03T14:34:27;6.55;;;1.92;;
43891;SDS011;29555;45.350;5.578;2023-02-03T14:36:54;1.90;;;1.38;;
43891;SDS011;29555;45.350;5.578;2023-02-03T14:42:06;3.03;;;1.75;;
43891;SDS011;29555;45.350;5.578;2023-02-03T14:50:07;1.85;;;1.50;;
43891;SDS011;29555;45.350;5.578;2023-02-03T14:58:36;5.13;;;4.00;;
43891;SDS011;29555;45.350;5.578;2023-02-03T15:01:21;4.22;;;2.90;;
43891;SDS011;29555;45.350;5.578;2023-02-03T15:06:37;19.42;;;8.18;;
43891;SDS011;29555;45.350;5.578;2023-02-03T15:09:21;12.23;;;6.10;;
43891;SDS011;29555;45.350;5.578;2023-02-03T15:12:17;5.32;;;3.50;;
43891;SDS011;29555;45.350;5.578;2023-02-03T15:14:46;3.55;;;1.88;;
43891;SDS011;29555;45.350;5.578;2023-02-03T15:17:17;2.08;;;1.73;;
43891;SDS011;29555;45.350;5.578;2023-02-03T15:19:47;6.75;;;2.58;;
43891;SDS011;29555;45.350;5.578;2023-02-03T15:24:45;1.48;;;1.38;;
43891;SDS011;29555;45.350;5.578;2023-02-03T15:30:25;3.65;;;2.45;;
43891;SDS011;29555;45.350;5.578;2023-02-03T15:35:31;5.80;;;2.15;;
43891;SDS011;29555;45.350;5.578;2023-02-03T15:38:10;2.15;;;1.50;;
43891;SDS011;29555;45.350;5.578;2023-02-03T15:40:46;3.92;;;1.85;;
43891;SDS011;29555;45.350;5.578;2023-02-03T15:46:16;8.18;;;3.80;;
43891;SDS011;29555;45.350;5.578;2023-02-03T15:48:50;7.78;;;2.38;;
43891;SDS011;29555;45.350;5.578;2023-02-03T15:51:26;6.70;;;2.85;;
43891;SDS011;29555;45.350;5.578;2023-02-03T15:54:07;1.60;;;1.50;;
43891;SDS011;29555;45.350;5.578;2023-02-03T15:59:28;6.05;;;2.10;;
43891;SDS011;29555;45.350;5.578;2023-02-03T16:04:51;2.67;;;2.05;;
43891;SDS011;29555;45.350;5.578;2023-02-03T16:07:17;6.75;;;2.55;;
43891;SDS011;29555;45.350;5.578;2023-02-03T16:09:46;5.85;;;2.95;;
43891;SDS011;29555;45.350;5.578;2023-02-03T16:12:17;11.02;;;7.10;;
43891;SDS011;29555;45.350;5.578;2023-02-03T16:14:47;5.38;;;3.67;;
43891;SDS011;29555;45.350;5.578;2023-02-03T16:17:20;5.38;;;3.63;;
43891;SDS011;29555;45.350;5.578;2023-02-03T16:19:48;2.83;;;2.10;;
43891;SDS011;29555;45.350;5.578;2023-02-03T16:22:34;1.58;;;1.35;;
43891;SDS011;29555;45.350;5.578;2023-02-03T16:25:16;7.07;;;3.80;;
43891;SDS011;29555;45.350;5.578;2023-02-03T16:27:44;4.20;;;2.35;;
43891;SDS011;29555;45.350;5.578;2023-02-03T16:30:38;10.50;;;3.03;;
43891;SDS011;29555;45.350;5.578;2023-02-03T16:33:22;3.80;;;2.70;;
43891;SDS011;29555;45.350;5.578;2023-02-03T16:36:10;6.72;;;2.85;;
43891;SDS011;29555;45.350;5.578;2023-02-03T16:38:55;5.00;;;4.13;;
43891;SDS011;29555;45.350;5.578;2023-02-03T16:41:44;3.65;;;2.28;;
43891;SDS011;29555;45.350;5.578;2023-02-03T16:44:28;2.08;;;1.70;;
43891;SDS011;29555;45.350;5.578;2023-02-03T16:47:25;2.38;;;1.70;;
43891;SDS011;29555;45.350;5.578;2023-02-03T16:50:15;11.63;;;8.75;;
43891;SDS011;29555;45.350;5.578;2023-02-03T16:53:02;4.85;;;2.88;;
43891;SDS011;29555;45.350;5.578;2023-02-03T16:55:28;1.63;;;1.52;;
43891;SDS011;29555;45.350;5.578;2023-02-03T16:57:53;3.03;;;2.15;;
43891;SDS011;29555;45.350;5.578;2023-02-03T17:00:19;8.30;;;2.13;;
43891;SDS011;29555;45.350;5.578;2023-02-03T17:02:46;2.58;;;1.48;;
43891;SDS011;29555;45.350;5.578;2023-02-03T17:05:13;5.15;;;3.40;;
43891;SDS011;29555;45.350;5.578;2023-02-03T17:07:38;4.07;;;1.95;;
43891;SDS011;29555;45.350;5.578;2023-02-03T17:10:04;2.72;;;1.92;;
43891;SDS011;29555;45.350;5.578;2023-02-03T17:12:29;4.95;;;1.75;;
43891;SDS011;29555;45.350;5.578;2023-02-03T17:14:57;3.50;;;2.45;;
43891;SDS011;29555;45.350;5.578;2023-02-03T17:17:23;3.90;;;2.08;;
43891;SDS011;29555;45.350;5.578;2023-02-03T17:19:48;4.50;;;3.50;;
43891;SDS011;29555;45.350;5.578;2023-02-03T17:22:14;3.42;;;2.67;;
43891;SDS011;29555;45.350;5.578;2023-02-03T17:24:39;4.35;;;2.67;;
43891;SDS011;29555;45.350;5.578;2023-02-03T17:27:05;5.93;;;2.35;;
43891;SDS011;29555;45.350;5.578;2023-02-03T17:29:30;3.35;;;2.75;;